Time;durP1;ratioP1;P1;durP2;ratioP2;P2;SDS_P1;SDS_P2;PMS_P1;PMS_P2;Temp;Humidity;BMP_temperature;BMP_pressure;BME280_temperature;BME280_humidity;BME280_pressure;Samples;Min_cycle;Max_cycle;Signal;HPM_P1;HPM_P2
2022/12/06 00:01:03;;;;;;;58.08;26.77;;;;;;;;;;744278;187;920923;-63
2022/12/06 00:03:29;;;;;;;43.53;23.07;;;;;;;;;;745915;187;919580;-61
2022/12/06 00:05:54;;;;;;;56.40;24.53;;;;;;;;;;741452;186;914591;-62
2022/12/06 00:08:20;;;;;;;57.40;25.60;;;;;;;;;;753279;186;918278;-61
2022/12/06 00:10:46;;;;;;;40.83;18.70;;;;;;;;;;749970;186;919203;-63
2022/12/06 00:13:12;;;;;;;32.27;17.77;;;;;;;;;;752607;188;918825;-60
2022/12/06 00:15:38;;;;;;;43.80;21.27;;;;;;;;;;747915;187;919533;-60
2022/12/06 00:18:04;;;;;;;53.97;31.37;;;;;;;;;;729715;189;919177;-61
2022/12/06 00:20:30;;;;;;;33.17;20.53;;;;;;;;;;730911;190;918530;-60
2022/12/06 00:22:56;;;;;;;56.43;27.87;;;;;;;;;;739850;187;919021;-60
2022/12/06 00:25:22;;;;;;;47.77;28.17;;;;;;;;;;750710;187;914929;-60
2022/12/06 00:27:48;;;;;;;52.70;26.97;;;;;;;;;;755094;186;816610;-65
2022/12/06 00:30:14;;;;;;;47.20;23.45;;;;;;;;;;736299;190;919921;-61
2022/12/06 00:32:40;;;;;;;41.17;22.70;;;;;;;;;;745285;186;869751;-60
2022/12/06 00:35:06;;;;;;;41.07;23.10;;;;;;;;;;735297;190;919696;-61
2022/12/06 00:37:32;;;;;;;48.40;24.70;;;;;;;;;;745768;188;919330;-60
2022/12/06 00:39:58;;;;;;;53.00;25.50;;;;;;;;;;745828;187;919276;-64
2022/12/06 00:42:24;;;;;;;59.90;28.05;;;;;;;;;;742634;187;919937;-61
2022/12/06 00:44:49;;;;;;;44.37;22.30;;;;;;;;;;757989;187;816066;-62
2022/12/06 00:47:15;;;;;;;49.43;23.30;;;;;;;;;;739466;187;919455;-60
2022/12/06 00:49:41;;;;;;;46.73;25.83;;;;;;;;;;736140;190;920889;-60
2022/12/06 00:52:07;;;;;;;46.47;22.93;;;;;;;;;;750556;186;814122;-60
2022/12/06 00:54:33;;;;;;;49.37;25.00;;;;;;;;;;746599;187;918729;-61
2022/12/06 00:56:59;;;;;;;52.90;24.43;;;;;;;;;;746537;187;623857;-64
2022/12/06 00:59:26;;;;;;;43.83;23.10;;;;;;;;;;742503;190;614036;-61
2022/12/06 01:01:50;;;;;;;40.07;24.90;;;;;;;;;;749177;186;625686;-60
2022/12/06 01:04:16;;;;;;;40.37;20.30;;;;;;;;;;749470;186;625049;-60
2022/12/06 01:06:42;;;;;;;45.53;23.52;;;;;;;;;;742107;185;918856;-60
2022/12/06 01:09:08;;;;;;;44.90;26.53;;;;;;;;;;738138;186;915850;-62
2022/12/06 01:11:34;;;;;;;30.97;18.57;;;;;;;;;;742555;187;919518;-60
2022/12/06 01:14:00;;;;;;;34.92;18.02;;;;;;;;;;740656;185;922250;-60
2022/12/06 01:16:25;;;;;;;30.80;17.43;;;;;;;;;;739311;185;919124;-61
2022/12/06 01:18:51;;;;;;;26.37;15.33;;;;;;;;;;723661;189;919404;-62
2022/12/06 01:21:17;;;;;;;30.33;15.23;;;;;;;;;;730664;190;920768;-59
2022/12/06 01:23:43;;;;;;;30.30;18.93;;;;;;;;;;747420;186;917136;-60
2022/12/06 01:26:14;;;;;;;31.20;19.80;;;;;;;;;;745994;186;916239;-59
2022/12/06 01:28:40;;;;;;;39.70;20.23;;;;;;;;;;737366;190;920932;-60
2022/12/06 01:31:06;;;;;;;32.90;19.37;;;;;;;;;;738959;189;817919;-61
2022/12/06 01:33:31;;;;;;;37.37;20.77;;;;;;;;;;752143;186;817409;-60
2022/12/06 01:35:57;;;;;;;43.00;23.20;;;;;;;;;;750444;186;918329;-59
2022/12/06 01:38:23;;;;;;;32.00;17.27;;;;;;;;;;748880;186;817430;-61
2022/12/06 01:40:49;;;;;;;28.35;16.42;;;;;;;;;;737175;187;920366;-60
2022/12/06 01:43:21;;;;;;;31.00;17.13;;;;;;;;;;739167;187;918829;-60
2022/12/06 01:45:47;;;;;;;26.27;15.60;;;;;;;;;;743171;186;920883;-62
2022/12/06 01:48:12;;;;;;;25.63;15.60;;;;;;;;;;731061;189;918813;-59
2022/12/06 01:50:39;;;;;;;27.00;16.40;;;;;;;;;;725602;190;913858;-62
2022/12/06 01:53:05;;;;;;;24.30;15.90;;;;;;;;;;722067;191;916915;-62
2022/12/06 01:55:31;;;;;;;29.80;17.03;;;;;;;;;;709906;194;918080;-60
2022/12/06 01:57:57;;;;;;;27.17;16.90;;;;;;;;;;726286;193;912934;-62
2022/12/06 02:00:22;;;;;;;33.90;21.27;;;;;;;;;;719907;193;919220;-58
2022/12/06 02:02:48;;;;;;;39.23;21.70;;;;;;;;;;723952;194;919150;-59
2022/12/06 02:05:14;;;;;;;35.87;19.60;;;;;;;;;;725556;187;934849;-60
2022/12/06 02:07:40;;;;;;;29.17;18.30;;;;;;;;;;746399;187;894816;-59
2022/12/06 02:10:06;;;;;;;26.00;14.77;;;;;;;;;;737925;188;939456;-59
2022/12/06 02:12:32;;;;;;;31.97;17.10;;;;;;;;;;735753;186;906584;-62
2022/12/06 02:14:58;;;;;;;26.00;16.00;;;;;;;;;;739081;187;1008276;-59
2022/12/06 02:17:25;;;;;;;30.17;17.03;;;;;;;;;;735351;187;891524;-61
2022/12/06 02:19:54;;;;;;;23.40;14.47;;;;;;;;;;734863;186;917069;-59
2022/12/06 02:22:24;;;;;;;23.50;15.07;;;;;;;;;;735163;186;944371;-59
2022/12/06 02:24:55;;;;;;;24.23;16.30;;;;;;;;;;740368;186;909906;-60
2022/12/06 02:27:39;;;;;;;28.70;16.53;;;;;;;;;;737629;187;918807;-61
2022/12/06 02:30:07;;;;;;;30.17;18.90;;;;;;;;;;736234;189;905249;-60
2022/12/06 02:32:33;;;;;;;32.07;17.77;;;;;;;;;;735806;187;936636;-61
2022/12/06 02:34:59;;;;;;;27.95;17.23;;;;;;;;;;743217;187;998986;-61
2022/12/06 02:37:25;;;;;;;28.23;15.07;;;;;;;;;;751947;187;918498;-59
2022/12/06 02:39:52;;;;;;;22.70;14.80;;;;;;;;;;726454;190;871129;-60
2022/12/06 02:42:18;;;;;;;22.47;14.07;;;;;;;;;;747988;186;888565;-59
2022/12/06 02:44:44;;;;;;;27.40;18.00;;;;;;;;;;751536;187;859176;-60
2022/12/06 02:47:11;;;;;;;27.10;17.10;;;;;;;;;;743969;187;914894;-60
2022/12/06 02:49:37;;;;;;;25.30;15.40;;;;;;;;;;739684;186;917006;-59
2022/12/06 02:52:02;;;;;;;27.30;16.27;;;;;;;;;;740477;186;917918;-61
2022/12/06 02:54:28;;;;;;;36.47;17.10;;;;;;;;;;749981;188;917404;-61
2022/12/06 02:56:54;;;;;;;30.30;16.70;;;;;;;;;;749183;187;917456;-62
2022/12/06 02:59:20;;;;;;;32.47;18.50;;;;;;;;;;731885;187;916921;-59
2022/12/06 03:01:46;;;;;;;31.50;16.65;;;;;;;;;;751903;186;812425;-62
2022/12/06 03:04:30;;;;;;;30.53;15.97;;;;;;;;;;729175;191;913576;-60
2022/12/06 03:06:44;;;;;;;27.27;15.57;;;;;;;;;;743924;186;917492;-60
2022/12/06 03:09:12;;;;;;;21.93;15.30;;;;;;;;;;745095;186;901178;-62
2022/12/06 03:11:38;;;;;;;24.80;14.37;;;;;;;;;;748028;186;916160;-62
2022/12/06 03:14:04;;;;;;;23.77;13.77;;;;;;;;;;736203;190;874112;-61
2022/12/06 03:16:32;;;;;;;21.87;12.80;;;;;;;;;;741132;190;623640;-60
2022/12/06 03:18:58;;;;;;;47.00;27.62;;;;;;;;;;749105;187;942347;-59
2022/12/06 03:21:24;;;;;;;53.40;31.50;;;;;;;;;;740124;187;920628;-60
2022/12/06 03:23:50;;;;;;;21.77;12.13;;;;;;;;;;744071;186;919177;-61
2022/12/06 03:26:16;;;;;;;7.53;5.32;;;;;;;;;;738613;188;822575;-60
2022/12/06 03:28:42;;;;;;;6.70;4.90;;;;;;;;;;745830;186;919131;-60
2022/12/06 03:31:09;;;;;;;10.57;5.53;;;;;;;;;;757316;186;918304;-60
2022/12/06 03:33:34;;;;;;;7.50;4.60;;;;;;;;;;753349;186;619899;-62
2022/12/06 03:36:00;;;;;;;8.37;4.20;;;;;;;;;;747566;187;915251;-59
2022/12/06 03:38:27;;;;;;;5.83;3.43;;;;;;;;;;745883;186;814413;-61
2022/12/06 03:40:53;;;;;;;5.00;3.10;;;;;;;;;;752075;186;899945;-59
2022/12/06 03:43:19;;;;;;;6.40;4.27;;;;;;;;;;750019;185;918379;-62
2022/12/06 03:45:45;;;;;;;5.00;3.30;;;;;;;;;;746874;187;918424;-61
2022/12/06 03:48:12;;;;;;;7.60;4.20;;;;;;;;;;747667;186;918896;-61
2022/12/06 03:50:38;;;;;;;5.80;3.63;;;;;;;;;;743827;187;908443;-62
2022/12/06 03:53:04;;;;;;;8.20;4.60;;;;;;;;;;733544;191;913016;-60
2022/12/06 03:55:30;;;;;;;6.80;3.70;;;;;;;;;;744914;187;918859;-60
2022/12/06 03:57:55;;;;;;;5.00;3.83;;;;;;;;;;741956;187;810661;-62
2022/12/06 04:00:21;;;;;;;5.60;3.03;;;;;;;;;;759581;186;627886;-60
2022/12/06 04:02:47;;;;;;;4.60;2.90;;;;;;;;;;745671;187;918626;-60
2022/12/06 04:05:13;;;;;;;4.17;3.13;;;;;;;;;;736821;187;918728;-61
2022/12/06 04:07:39;;;;;;;5.10;3.20;;;;;;;;;;738461;187;918814;-61
2022/12/06 04:10:05;;;;;;;5.63;3.00;;;;;;;;;;748124;186;920061;-61
2022/12/06 04:15:03;;;;;;;4.70;3.33;;;;;;;;;;735637;190;920782;-61
2022/12/06 04:20:00;;;;;;;4.30;2.67;;;;;;;;;;711452;196;919950;-60
2022/12/06 04:24:59;;;;;;;5.00;3.27;;;;;;;;;;732582;190;916688;-60
2022/12/06 04:40:03;;;;;;;5.83;4.00;;;;;;;;;;754513;186;894058;-60
2022/12/06 04:45:00;;;;;;;8.90;3.47;;;;;;;;;;738283;186;914111;-60
2022/12/06 04:47:26;;;;;;;4.27;2.90;;;;;;;;;;742592;187;919747;-60
2022/12/06 04:49:52;;;;;;;4.43;2.73;;;;;;;;;;745688;186;919501;-59
2022/12/06 04:52:18;;;;;;;6.70;3.40;;;;;;;;;;746827;186;919348;-61
2022/12/06 04:54:44;;;;;;;6.03;3.73;;;;;;;;;;725202;190;826623;-61
2022/12/06 04:57:10;;;;;;;7.00;4.73;;;;;;;;;;754222;186;919675;-60
2022/12/06 04:59:37;;;;;;;6.67;4.30;;;;;;;;;;740040;186;918066;-59
2022/12/06 05:02:02;;;;;;;6.47;4.50;;;;;;;;;;746511;186;918945;-60
2022/12/06 05:04:28;;;;;;;6.53;4.33;;;;;;;;;;745180;186;918802;-60
2022/12/06 05:06:54;;;;;;;6.37;4.20;;;;;;;;;;745114;185;919210;-61
2022/12/06 05:09:20;;;;;;;6.77;4.67;;;;;;;;;;745139;186;920134;-60
2022/12/06 05:11:45;;;;;;;6.70;4.62;;;;;;;;;;734448;186;918839;-60
2022/12/06 05:14:11;;;;;;;6.37;3.83;;;;;;;;;;748883;186;817081;-59
2022/12/06 05:16:37;;;;;;;8.80;5.13;;;;;;;;;;744217;186;919479;-60
2022/12/06 05:19:03;;;;;;;7.83;4.70;;;;;;;;;;745087;186;921055;-60
2022/12/06 05:21:29;;;;;;;7.57;3.90;;;;;;;;;;752421;186;919431;-61
2022/12/06 05:23:55;;;;;;;5.90;4.03;;;;;;;;;;748410;188;916739;-61
2022/12/06 05:26:20;;;;;;;6.27;4.40;;;;;;;;;;736140;186;915168;-60
2022/12/06 05:28:47;;;;;;;5.80;3.80;;;;;;;;;;748412;186;919696;-60
2022/12/06 05:31:13;;;;;;;6.30;3.90;;;;;;;;;;747183;186;920825;-60
2022/12/06 05:33:38;;;;;;;6.13;3.80;;;;;;;;;;747074;186;921530;-60
2022/12/06 05:36:05;;;;;;;4.97;3.77;;;;;;;;;;718987;193;918761;-60
2022/12/06 05:38:31;;;;;;;6.27;3.80;;;;;;;;;;747252;187;920991;-59
2022/12/06 05:40:57;;;;;;;5.30;3.47;;;;;;;;;;734115;190;919581;-61
2022/12/06 05:43:23;;;;;;;4.80;3.30;;;;;;;;;;746832;186;829921;-60
2022/12/06 05:45:48;;;;;;;5.37;3.73;;;;;;;;;;746992;186;919069;-60
2022/12/06 05:48:14;;;;;;;8.70;3.20;;;;;;;;;;742454;187;920933;-62
2022/12/06 05:50:40;;;;;;;5.00;3.03;;;;;;;;;;731957;186;920544;-61
2022/12/06 05:53:06;;;;;;;4.80;2.92;;;;;;;;;;748614;186;920885;-60
2022/12/06 05:55:32;;;;;;;6.20;4.50;;;;;;;;;;757842;182;918671;-62
2022/12/06 05:57:58;;;;;;;5.90;3.77;;;;;;;;;;749077;186;889629;-62
2022/12/06 06:00:24;;;;;;;5.03;2.92;;;;;;;;;;737565;187;918908;-60
2022/12/06 06:02:49;;;;;;;4.87;2.80;;;;;;;;;;743841;186;919471;-61
2022/12/06 06:05:15;;;;;;;4.57;2.70;;;;;;;;;;745849;186;912799;-62
2022/12/06 06:07:41;;;;;;;4.97;3.30;;;;;;;;;;738268;187;941902;-59
2022/12/06 06:10:07;;;;;;;5.17;3.10;;;;;;;;;;748928;186;919356;-60
2022/12/06 06:12:33;;;;;;;5.57;3.60;;;;;;;;;;741825;186;918563;-62
2022/12/06 06:14:59;;;;;;;5.20;3.30;;;;;;;;;;744838;186;923766;-59
2022/12/06 06:17:25;;;;;;;5.45;3.65;;;;;;;;;;737757;190;922483;-62
2022/12/06 06:19:50;;;;;;;4.50;3.20;;;;;;;;;;727615;190;920146;-60
2022/12/06 06:22:17;;;;;;;5.90;3.47;;;;;;;;;;729478;190;920381;-61
2022/12/06 06:24:42;;;;;;;4.00;3.07;;;;;;;;;;721956;190;919276;-60
2022/12/06 06:27:08;;;;;;;5.32;4.43;;;;;;;;;;748913;187;910126;-60
2022/12/06 06:29:34;;;;;;;6.93;5.10;;;;;;;;;;750611;187;920094;-61
2022/12/06 06:32:00;;;;;;;6.43;4.63;;;;;;;;;;749538;187;919123;-63
2022/12/06 06:34:26;;;;;;;6.20;4.17;;;;;;;;;;752615;186;919271;-60
2022/12/06 06:36:51;;;;;;;6.53;4.70;;;;;;;;;;735339;187;919916;-63
2022/12/06 06:39:17;;;;;;;7.77;5.20;;;;;;;;;;732060;187;919642;-62
2022/12/06 06:41:45;;;;;;;7.63;5.00;;;;;;;;;;736618;191;919522;-62
2022/12/06 06:44:11;;;;;;;8.87;5.80;;;;;;;;;;751570;186;816960;-61
2022/12/06 06:46:37;;;;;;;8.90;6.50;;;;;;;;;;751860;186;936202;-63
2022/12/06 06:49:03;;;;;;;12.87;7.90;;;;;;;;;;749062;186;919016;-61
2022/12/06 06:51:28;;;;;;;13.97;9.00;;;;;;;;;;755230;186;919215;-62
2022/12/06 06:53:54;;;;;;;17.60;11.47;;;;;;;;;;745974;186;921038;-61
2022/12/06 06:56:20;;;;;;;17.77;12.40;;;;;;;;;;750263;186;919457;-63
2022/12/06 06:58:46;;;;;;;18.37;11.30;;;;;;;;;;752167;186;917423;-63
2022/12/06 07:01:14;;;;;;;14.63;10.90;;;;;;;;;;738648;187;918354;-63
2022/12/06 07:03:40;;;;;;;18.73;11.37;;;;;;;;;;743447;186;918868;-62
2022/12/06 07:06:06;;;;;;;16.20;9.60;;;;;;;;;;742491;187;919450;-63
2022/12/06 07:08:32;;;;;;;17.17;10.33;;;;;;;;;;757117;184;920297;-60
2022/12/06 07:10:58;;;;;;;20.30;11.63;;;;;;;;;;743370;187;919312;-61
2022/12/06 07:13:24;;;;;;;18.90;11.70;;;;;;;;;;748028;186;920886;-63
2022/12/06 07:15:50;;;;;;;14.63;9.50;;;;;;;;;;748446;186;922218;-61
2022/12/06 07:18:16;;;;;;;14.50;10.10;;;;;;;;;;748563;187;920230;-61
2022/12/06 07:20:42;;;;;;;18.20;10.77;;;;;;;;;;745954;187;918807;-64
2022/12/06 07:23:08;;;;;;;15.77;9.60;;;;;;;;;;750918;186;813862;-59
2022/12/06 07:25:35;;;;;;;15.87;8.90;;;;;;;;;;748503;186;924718;-63
2022/12/06 07:28:00;;;;;;;11.77;7.93;;;;;;;;;;742030;186;919420;-62
2022/12/06 07:30:27;;;;;;;16.00;9.47;;;;;;;;;;746047;186;815603;-61
2022/12/06 07:32:53;;;;;;;12.83;7.97;;;;;;;;;;732541;189;788576;-59
2022/12/06 07:35:19;;;;;;;13.83;7.90;;;;;;;;;;722707;193;918935;-60
2022/12/06 07:37:45;;;;;;;12.70;7.50;;;;;;;;;;740531;186;918429;-60
2022/12/06 07:40:11;;;;;;;11.60;7.93;;;;;;;;;;743642;186;922497;-62
2022/12/06 07:45:09;;;;;;;11.90;7.27;;;;;;;;;;738263;186;814592;-61
2022/12/06 07:47:35;;;;;;;13.57;8.50;;;;;;;;;;745046;186;837023;-65
2022/12/06 07:50:02;;;;;;;14.77;7.63;;;;;;;;;;739989;187;816763;-63
2022/12/06 07:52:29;;;;;;;13.80;7.40;;;;;;;;;;735562;187;928549;-63
2022/12/06 07:54:55;;;;;;;12.43;7.50;;;;;;;;;;746382;187;919466;-64
2022/12/06 07:57:21;;;;;;;15.30;7.90;;;;;;;;;;750467;186;915824;-61
2022/12/06 07:59:46;;;;;;;12.10;6.97;;;;;;;;;;731625;186;918972;-60
2022/12/06 08:02:16;;;;;;;11.30;7.60;;;;;;;;;;739001;186;918315;-60
2022/12/06 08:04:42;;;;;;;10.03;7.10;;;;;;;;;;734979;186;1021124;-61
2022/12/06 08:07:08;;;;;;;14.70;6.80;;;;;;;;;;739667;187;918661;-64
2022/12/06 08:09:33;;;;;;;10.67;6.60;;;;;;;;;;734844;190;921517;-60
2022/12/06 08:11:59;;;;;;;10.23;6.93;;;;;;;;;;735058;186;919659;-60
2022/12/06 08:14:25;;;;;;;9.50;7.27;;;;;;;;;;748046;187;917060;-64
2022/12/06 08:16:51;;;;;;;10.80;7.83;;;;;;;;;;742571;187;916080;-60
2022/12/06 08:19:17;;;;;;;14.23;7.20;;;;;;;;;;736716;186;916839;-60
2022/12/06 08:21:43;;;;;;;9.77;6.43;;;;;;;;;;744712;186;907905;-60
2022/12/06 08:24:08;;;;;;;10.53;7.80;;;;;;;;;;745847;185;918921;-63
2022/12/06 08:26:35;;;;;;;7.73;5.90;;;;;;;;;;745410;185;916754;-64
2022/12/06 08:29:00;;;;;;;10.07;6.33;;;;;;;;;;746799;186;1020422;-63
2022/12/06 08:31:26;;;;;;;10.20;7.40;;;;;;;;;;746644;185;916864;-61
2022/12/06 08:33:52;;;;;;;10.23;6.80;;;;;;;;;;740607;186;919612;-63
2022/12/06 08:36:18;;;;;;;8.50;6.37;;;;;;;;;;736941;190;917224;-61
2022/12/06 08:38:44;;;;;;;10.03;6.27;;;;;;;;;;729683;190;918955;-60
2022/12/06 08:43:50;;;;;;;7.03;4.73;;;;;;;;;;722423;190;923676;-63
2022/12/06 08:46:16;;;;;;;7.13;5.37;;;;;;;;;;740847;186;817086;-62
2022/12/06 08:48:42;;;;;;;7.63;5.07;;;;;;;;;;740558;189;634231;-59
2022/12/06 08:51:08;;;;;;;7.47;5.73;;;;;;;;;;748952;186;713089;-60
2022/12/06 08:53:33;;;;;;;7.90;4.83;;;;;;;;;;746878;186;926673;-61
2022/12/06 08:55:59;;;;;;;10.83;5.03;;;;;;;;;;740702;186;916959;-64
2022/12/06 08:58:25;;;;;;;10.25;5.57;;;;;;;;;;746013;187;917128;-65
2022/12/06 09:00:51;;;;;;;6.00;4.17;;;;;;;;;;744977;187;917455;-64
2022/12/06 09:03:18;;;;;;;5.97;4.23;;;;;;;;;;740060;186;917342;-60
2022/12/06 09:05:43;;;;;;;4.97;3.90;;;;;;;;;;745448;187;908911;-59
2022/12/06 09:08:09;;;;;;;6.47;4.63;;;;;;;;;;742152;186;928391;-61
2022/12/06 09:10:35;;;;;;;6.10;4.63;;;;;;;;;;745014;187;626751;-64
2022/12/06 09:13:01;;;;;;;6.70;4.50;;;;;;;;;;741415;186;628522;-61
2022/12/06 09:15:27;;;;;;;8.93;4.50;;;;;;;;;;747807;186;894506;-64
2022/12/06 09:17:53;;;;;;;6.68;4.97;;;;;;;;;;728166;190;913712;-64
2022/12/06 09:20:18;;;;;;;6.60;4.53;;;;;;;;;;728549;191;882142;-64
2022/12/06 09:22:44;;;;;;;5.97;4.87;;;;;;;;;;742233;186;890754;-61
2022/12/06 09:25:10;;;;;;;8.00;5.27;;;;;;;;;;738405;186;927705;-64
2022/12/06 09:27:36;;;;;;;11.27;5.27;;;;;;;;;;737107;186;913337;-64
2022/12/06 09:30:02;;;;;;;7.40;5.87;;;;;;;;;;749381;187;915578;-61
2022/12/06 09:32:28;;;;;;;6.03;5.33;;;;;;;;;;745040;187;916353;-64
2022/12/06 09:34:54;;;;;;;8.10;5.80;;;;;;;;;;742678;186;919191;-66
2022/12/06 09:37:19;;;;;;;10.10;6.47;;;;;;;;;;731863;189;916059;-60
2022/12/06 09:39:45;;;;;;;5.90;4.80;;;;;;;;;;742736;186;926652;-63
2022/12/06 09:42:17;;;;;;;5.80;4.57;;;;;;;;;;737251;188;1021729;-60
2022/12/06 09:44:44;;;;;;;5.10;4.03;;;;;;;;;;738031;187;917478;-63
2022/12/06 09:47:13;;;;;;;4.70;3.80;;;;;;;;;;754835;186;904520;-59
2022/12/06 09:49:42;;;;;;;6.65;4.35;;;;;;;;;;738350;186;917858;-60
2022/12/06 09:52:09;;;;;;;5.60;4.13;;;;;;;;;;739378;186;916056;-63
2022/12/06 09:54:39;;;;;;;6.00;3.90;;;;;;;;;;744768;186;967841;-60
2022/12/06 09:57:05;;;;;;;5.27;4.10;;;;;;;;;;747545;186;899865;-63
2022/12/06 09:59:46;;;;;;;6.00;4.37;;;;;;;;;;747632;186;914772;-60
2022/12/06 10:02:18;;;;;;;5.80;4.20;;;;;;;;;;744061;186;899882;-63
2022/12/06 10:04:47;;;;;;;5.43;4.10;;;;;;;;;;740469;187;919095;-60
2022/12/06 10:07:13;;;;;;;6.03;4.57;;;;;;;;;;743738;187;919070;-60
2022/12/06 10:09:41;;;;;;;5.47;3.97;;;;;;;;;;754197;186;916456;-59
2022/12/06 10:12:08;;;;;;;5.80;4.67;;;;;;;;;;743820;186;914946;-64
2022/12/06 10:14:34;;;;;;;7.77;5.27;;;;;;;;;;747349;186;918530;-64
2022/12/06 10:17:01;;;;;;;8.00;5.37;;;;;;;;;;750318;186;862956;-64
2022/12/06 10:19:31;;;;;;;6.77;4.97;;;;;;;;;;732654;186;916737;-59
2022/12/06 10:22:12;;;;;;;6.07;5.37;;;;;;;;;;743318;187;919094;-64
2022/12/06 10:24:40;;;;;;;6.00;4.97;;;;;;;;;;737707;187;917581;-59
2022/12/06 10:27:10;;;;;;;5.43;4.67;;;;;;;;;;737912;186;919303;-64
2022/12/06 10:29:37;;;;;;;6.77;4.77;;;;;;;;;;738015;190;879319;-59
2022/12/06 10:32:03;;;;;;;6.80;5.00;;;;;;;;;;733127;190;917542;-64
2022/12/06 10:34:32;;;;;;;6.70;5.07;;;;;;;;;;740553;187;1018127;-64
2022/12/06 10:37:03;;;;;;;5.95;4.43;;;;;;;;;;729523;189;916937;-64
2022/12/06 10:39:35;;;;;;;5.87;4.93;;;;;;;;;;744733;186;873499;-60
2022/12/06 10:42:01;;;;;;;6.63;5.40;;;;;;;;;;744570;187;915603;-59
2022/12/06 10:44:29;;;;;;;7.50;5.77;;;;;;;;;;745209;187;928304;-63
2022/12/06 10:49:40;;;;;;;7.17;5.87;;;;;;;;;;750539;186;919214;-64
2022/12/06 10:52:20;;;;;;;6.10;5.50;;;;;;;;;;748797;186;918809;-60
2022/12/06 10:54:49;;;;;;;7.70;5.97;;;;;;;;;;724886;193;914725;-63
2022/12/06 10:57:14;;;;;;;5.83;4.20;;;;;;;;;;736653;189;924087;-64
2022/12/06 10:59:42;;;;;;;6.70;5.62;;;;;;;;;;746238;185;913741;-61
2022/12/06 11:02:18;;;;;;;6.70;5.30;;;;;;;;;;722923;193;920957;-64
2022/12/06 11:04:44;;;;;;;6.37;4.87;;;;;;;;;;738179;190;915710;-63
2022/12/06 11:07:11;;;;;;;7.07;5.87;;;;;;;;;;743825;186;919397;-63
2022/12/06 11:09:38;;;;;;;5.72;5.00;;;;;;;;;;722192;194;917054;-60
2022/12/06 11:12:03;;;;;;;8.43;6.27;;;;;;;;;;745177;186;918785;-64
2022/12/06 11:14:29;;;;;;;6.30;5.00;;;;;;;;;;738731;190;918042;-59
2022/12/06 11:16:55;;;;;;;6.67;5.20;;;;;;;;;;732263;189;917509;-63
2022/12/06 11:19:23;;;;;;;6.53;5.17;;;;;;;;;;742730;187;919139;-63
2022/12/06 11:21:49;;;;;;;5.80;4.40;;;;;;;;;;747827;187;919443;-59
2022/12/06 11:24:21;;;;;;;5.77;4.97;;;;;;;;;;736551;186;917480;-62
2022/12/06 11:26:48;;;;;;;6.07;4.93;;;;;;;;;;750721;186;918855;-63
2022/12/06 11:29:14;;;;;;;7.10;6.17;;;;;;;;;;749113;187;817716;-61
2022/12/06 11:31:55;;;;;;;5.80;4.80;;;;;;;;;;753475;187;610832;-60
2022/12/06 11:34:36;;;;;;;6.43;4.53;;;;;;;;;;750839;187;644423;-62
2022/12/06 11:37:02;;;;;;;4.73;3.77;;;;;;;;;;758020;186;620112;-59
2022/12/06 11:39:27;;;;;;;5.10;4.60;;;;;;;;;;747448;187;919301;-59
2022/12/06 11:41:53;;;;;;;5.17;4.27;;;;;;;;;;724927;190;919744;-62
2022/12/06 11:44:20;;;;;;;5.10;4.60;;;;;;;;;;751307;186;629643;-61
2022/12/06 11:46:47;;;;;;;6.80;5.37;;;;;;;;;;745209;186;919230;-59
2022/12/06 11:49:13;;;;;;;6.10;4.20;;;;;;;;;;753018;186;816261;-60
2022/12/06 11:51:39;;;;;;;5.00;4.50;;;;;;;;;;745470;186;918341;-61
2022/12/06 11:54:06;;;;;;;5.50;4.23;;;;;;;;;;740488;189;917585;-59
2022/12/06 11:56:32;;;;;;;5.57;4.50;;;;;;;;;;741915;187;919666;-58
2022/12/06 11:59:12;;;;;;;6.90;3.60;;;;;;;;;;738368;189;919080;-62
2022/12/06 12:01:39;;;;;;;3.80;2.40;;;;;;;;;;750164;186;920793;-58
2022/12/06 12:04:24;;;;;;;4.20;3.05;;;;;;;;;;754937;186;919703;-60
2022/12/06 12:06:50;;;;;;;3.67;2.50;;;;;;;;;;741628;188;919750;-58
2022/12/06 12:09:16;;;;;;;4.23;2.40;;;;;;;;;;734618;185;816793;-62
2022/12/06 12:11:42;;;;;;;3.17;2.50;;;;;;;;;;737896;187;919438;-59
2022/12/06 12:14:13;;;;;;;3.27;2.37;;;;;;;;;;740557;189;919097;-61
2022/12/06 12:16:41;;;;;;;4.20;2.60;;;;;;;;;;733082;190;919566;-61
2022/12/06 12:19:13;;;;;;;8.10;3.23;;;;;;;;;;742962;186;919652;-59
2022/12/06 12:21:39;;;;;;;4.10;2.30;;;;;;;;;;740977;186;920333;-58
2022/12/06 12:24:05;;;;;;;5.35;3.33;;;;;;;;;;731959;186;920110;-60
2022/12/06 12:26:33;;;;;;;4.50;2.63;;;;;;;;;;744181;183;919247;-59
2022/12/06 12:29:03;;;;;;;5.27;3.63;;;;;;;;;;748943;187;920953;-59
2022/12/06 12:31:28;;;;;;;5.32;3.30;;;;;;;;;;750310;186;919402;-61
2022/12/06 12:34:11;;;;;;;3.90;2.53;;;;;;;;;;757199;186;918463;-60
2022/12/06 12:36:37;;;;;;;6.17;3.73;;;;;;;;;;743405;186;932144;-59
2022/12/06 12:39:03;;;;;;;3.60;2.67;;;;;;;;;;738193;187;922441;-62
2022/12/06 12:41:31;;;;;;;4.00;3.20;;;;;;;;;;738741;190;916604;-62
2022/12/06 12:43:57;;;;;;;5.80;3.60;;;;;;;;;;738391;187;1021885;-62
2022/12/06 12:46:23;;;;;;;4.67;2.43;;;;;;;;;;744822;187;820375;-59
2022/12/06 12:48:50;;;;;;;3.40;2.40;;;;;;;;;;744064;186;919507;-62
2022/12/06 12:51:20;;;;;;;5.10;2.93;;;;;;;;;;742699;186;920158;-59
2022/12/06 12:53:47;;;;;;;5.03;3.23;;;;;;;;;;746931;188;919323;-62
2022/12/06 12:56:12;;;;;;;6.43;3.63;;;;;;;;;;732799;187;904866;-61
2022/12/06 12:58:38;;;;;;;5.20;3.27;;;;;;;;;;735269;187;921729;-61
2022/12/06 13:01:04;;;;;;;5.87;3.13;;;;;;;;;;735361;187;920012;-61
2022/12/06 13:03:31;;;;;;;5.10;3.40;;;;;;;;;;739890;190;917247;-61
2022/12/06 13:05:56;;;;;;;5.13;3.43;;;;;;;;;;748237;186;920791;-60
2022/12/06 13:08:25;;;;;;;4.73;3.47;;;;;;;;;;745812;187;922330;-58
2022/12/06 13:10:48;;;;;;;4.83;3.40;;;;;;;;;;750874;186;919165;-61
2022/12/06 13:13:18;;;;;;;6.43;4.00;;;;;;;;;;745308;187;920590;-59
2022/12/06 13:15:46;;;;;;;4.97;3.20;;;;;;;;;;749297;186;919403;-58
2022/12/06 13:18:10;;;;;;;4.90;3.93;;;;;;;;;;746335;186;917975;-60
2022/12/06 13:20:36;;;;;;;4.17;3.00;;;;;;;;;;752582;186;918712;-59
2022/12/06 13:23:02;;;;;;;4.53;3.53;;;;;;;;;;734768;190;921098;-59
2022/12/06 13:25:28;;;;;;;9.33;3.67;;;;;;;;;;746850;186;916753;-59
2022/12/06 13:27:54;;;;;;;4.93;4.00;;;;;;;;;;746864;189;919789;-61
2022/12/06 13:30:20;;;;;;;5.80;4.17;;;;;;;;;;735403;187;918770;-60
2022/12/06 13:32:45;;;;;;;5.93;4.47;;;;;;;;;;735144;186;918813;-62
2022/12/06 13:35:32;;;;;;;4.83;3.60;;;;;;;;;;740643;190;920948;-61
2022/12/06 13:37:59;;;;;;;7.00;4.17;;;;;;;;;;744482;186;919370;-59
2022/12/06 13:40:25;;;;;;;7.53;4.10;;;;;;;;;;753618;186;818573;-61
2022/12/06 13:42:50;;;;;;;7.50;3.90;;;;;;;;;;744607;187;918579;-62
2022/12/06 13:45:22;;;;;;;6.10;4.40;;;;;;;;;;741202;187;918786;-60
2022/12/06 13:47:48;;;;;;;5.93;3.80;;;;;;;;;;740236;186;918985;-61
2022/12/06 13:50:29;;;;;;;6.63;5.20;;;;;;;;;;734701;190;917289;-61
2022/12/06 13:53:01;;;;;;;5.20;3.77;;;;;;;;;;735484;189;919654;-61
2022/12/06 13:55:42;;;;;;;5.07;3.93;;;;;;;;;;738061;187;919205;-60
2022/12/06 13:58:23;;;;;;;5.27;3.10;;;;;;;;;;736166;187;920893;-59
2022/12/06 14:00:49;;;;;;;4.03;3.33;;;;;;;;;;743613;186;923403;-62
2022/12/06 14:03:30;;;;;;;4.93;3.63;;;;;;;;;;741352;186;920963;-59
2022/12/06 14:05:56;;;;;;;5.60;4.77;;;;;;;;;;732827;186;1045335;-61
2022/12/06 14:08:22;;;;;;;5.90;5.00;;;;;;;;;;747563;187;920596;-59
2022/12/06 14:10:48;;;;;;;10.87;5.83;;;;;;;;;;742762;187;819467;-60
2022/12/06 14:13:16;;;;;;;6.75;5.30;;;;;;;;;;750149;186;818528;-62
2022/12/06 14:15:44;;;;;;;7.30;5.20;;;;;;;;;;746845;186;914718;-61
2022/12/06 14:18:10;;;;;;;7.87;5.68;;;;;;;;;;737442;186;921886;-61
2022/12/06 14:20:36;;;;;;;13.50;5.23;;;;;;;;;;746476;186;886721;-61
2022/12/06 14:23:02;;;;;;;8.00;5.33;;;;;;;;;;749894;184;920740;-63
2022/12/06 14:25:28;;;;;;;6.50;5.23;;;;;;;;;;743255;186;773371;-60
2022/12/06 14:27:59;;;;;;;6.47;4.60;;;;;;;;;;744937;186;818580;-60
2022/12/06 14:30:25;;;;;;;7.20;4.73;;;;;;;;;;747435;186;919210;-60
2022/12/06 14:32:51;;;;;;;7.00;4.20;;;;;;;;;;750976;186;918854;-60
2022/12/06 14:35:19;;;;;;;7.17;4.67;;;;;;;;;;744884;186;809277;-60
2022/12/06 14:37:45;;;;;;;7.40;4.80;;;;;;;;;;741221;186;923008;-59
2022/12/06 14:40:11;;;;;;;7.10;3.67;;;;;;;;;;744002;186;919135;-62
2022/12/06 14:45:10;;;;;;;5.50;3.47;;;;;;;;;;742158;186;948746;-59
2022/12/06 14:47:36;;;;;;;6.57;4.03;;;;;;;;;;743235;186;919310;-59
2022/12/06 14:52:34;;;;;;;5.50;4.50;;;;;;;;;;742304;189;837978;-59
2022/12/06 14:55:07;;;;;;;5.37;3.37;;;;;;;;;;747367;186;915953;-60